Latest Coastal Weather Observations for Kalumburu

IDW60701

Issued at 5:32 pm WST Friday 30 January 2015 (issued every 10 minutes, with the page automatically refreshed every 10 minutes)

About coastal observations | Map of coastal stations | Coastal observations for WA | Marine services | Other Formats
Station Details ID: 001019 Name: KALUMBURU Lat: -14.30 Lon: 126.65 Height: 23.0 m
Data from the previous 72 hours. | See also: Recent months at Kalumburu
Date/Time
WST
Temp

°C
Wind Pressure Rain
since 9am
mm
Weather Cloud Vis
km
Sea
Height
m
Swell
Dir
 
Speed
knots
Gust
knots
hPa Trend Height
m
Period
s
Dir
30/05:00pm 31.0 NW 7 11 1004.9 - 0.0 - - - - - - -
30/04:30pm 31.2 NW 9 12 1004.8 - 0.0 - - - - - - -
30/04:00pm 31.7 NW 8 12 1004.8 - 0.0 - - - - - - -
30/03:30pm 32.0 NW 8 13 1005.1 - 0.0 - - - - - - -
30/03:00pm 32.1 WNW 9 13 1005.3 - 0.0 - - - - - - -
30/02:30pm 32.5 WNW 8 14 1005.2 - 0.0 - - - - - - -
30/02:00pm 32.4 WNW 9 14 1005.1 - 0.0 - - - - - - -
30/01:30pm 33.0 WNW 8 12 1005.3 - 0.0 - - - - - - -
30/01:00pm 33.1 WNW 7 13 1005.6 - 0.0 - - - - - - -
30/12:30pm 33.2 WNW 6 11 1006.2 - 0.0 - - - - - - -
30/12:00pm 33.3 WSW 5 8 1006.9 - 0.0 - - - - - - -
30/11:30am 32.6 W 6 12 1007.6 - 0.0 - - - - - - -
30/11:00am 32.4 W 5 9 1007.9 - 0.0 - - - - - - -
30/10:30am 32.3 SW 5 9 1008.4 - 0.0 - - - - - - -
30/10:00am 32.1 WNW 5 7 1008.8 - 0.0 - - - - - - -
30/09:30am 31.3 S 4 6 1008.9 - 0.0 - - - - - - -
30/09:00am 30.7 W 3 5 1009.0 - 0.0 - - - - - - -
30/08:30am 29.9 ESE 1 4 1008.9 - 0.0 - - - - - - -
30/08:00am 28.4 CALM 0 3 1008.9 - 0.0 - - - - - - -
30/07:30am 27.5 SSW 3 4 1008.5 - 0.0 - - - - - - -
30/07:00am 27.1 SSE 2 4 1007.8 - 0.0 - - - - - - -
30/06:30am 25.6 SSW 3 4 1007.7 - 0.0 - - - - - - -
30/06:00am 25.2 SSW 1 4 1007.3 - 0.0 - - - - - - -
30/05:30am 24.2 CALM 0 3 1006.9 - 0.0 - - - - - - -
30/05:00am 24.4 S 1 3 1006.6 - 0.0 - - - - - - -
30/04:30am 24.4 CALM 0 0 1006.3 - 0.0 - - - - - - -
30/04:00am 24.6 CALM 0 0 1006.0 - 0.0 - - - - - - -
30/03:30am 24.6 CALM 0 0 1006.1 - 0.0 - - - - - - -
30/03:00am 24.8 CALM 0 0 1006.0 - 0.0 - - - - - - -
30/02:30am 24.9 CALM 0 0 1006.1 - 0.0 - - - - - - -
30/02:00am 25.3 CALM 0 0 1006.4 - 0.0 - - - - - - -
30/01:30am 25.4 CALM 0 0 1006.7 - 0.0 - - - - - - -
30/01:00am 26.1 S 3 5 1007.1 - 0.0 - - - - - - -
30/12:30am 26.4 SSW 5 7 1007.6 - 0.0 - - - - - - -
30/12:00am 26.6 S 3 4 1007.8 - 0.0 - - - - - - -
 
Date/Time
WST
Temp

°C
Wind Pressure Rain
since 9am
mm
Weather Cloud Vis
km
Sea
Height
m
Swell
Dir
 
Speed
knots
Gust
knots
hPa Trend Height
m
Period
s
Dir
29/11:30pm 26.8 SSE 3 5 1008.1 - 0.0 - - - - - - -
29/11:00pm 27.1 S 3 5 1008.6 - 0.0 - - - - - - -
29/10:30pm 27.2 S 3 5 1008.7 - 0.0 - - - - - - -
29/10:00pm 27.5 SW 2 3 1008.6 - 0.0 - - - - - - -
29/09:30pm 27.6 CALM 0 3 1008.5 - 0.0 - - - - - - -
29/09:00pm 27.7 WSW 2 6 1008.4 - 0.0 - - - - - - -
29/08:30pm 28.2 WSW 3 5 1008.0 - 0.0 - - - - - - -
29/08:00pm 28.5 WNW 4 7 1007.7 - 0.0 - - - - - - -
29/07:30pm 28.4 WNW 4 6 1007.2 - 0.0 - - - - - - -
29/07:00pm 28.6 WNW 4 7 1006.5 - 0.0 - - - - - - -
29/06:30pm 29.3 WNW 5 8 1005.8 - 0.0 - - - - - - -
29/06:00pm 29.7 WNW 4 6 1005.1 - 0.0 - - - - - - -
29/05:30pm 30.2 N 6 8 1004.7 - 0.0 - - - - - - -
29/05:00pm 30.6 N 7 11 1004.4 - 0.0 - - - - - - -
29/04:30pm 31.7 N 4 6 1003.9 - 0.0 - - - - - - -
29/04:00pm 30.9 NW 6 9 1003.6 - 0.0 - - - - - - -
29/03:30pm 30.8 NNW 8 11 1003.5 - 0.0 - - - - - - -
29/03:00pm 33.3 SW 3 5 1003.5 - 0.0 - - - - - - -
29/02:30pm 34.0 NW 4 7 1003.7 - 0.0 - - - - - - -
29/02:00pm 33.7 W 4 6 1004.1 - 0.0 - - - - - - -
29/01:30pm 32.8 SSW 5 9 1004.4 - 0.0 - - - - - - -
29/01:00pm 33.6 SSW 3 7 1004.8 - 0.0 - - - - - - -
29/12:30pm 33.3 S 4 9 1005.2 - 0.0 - - - - - - -
29/12:00pm 32.7 S 4 6 1005.9 - 0.0 - - - - - - -
29/11:30am 31.7 SSW 5 7 1006.5 - 0.0 - - - - - - -
29/11:00am 31.0 SSW 4 7 1007.1 - 0.0 - - - - - - -
29/10:30am 30.5 SSW 5 6 1007.4 - 0.0 - - - - - - -
29/10:00am 30.7 S 4 6 1007.6 - 0.0 - - - - - - -
29/09:30am 29.9 SSW 4 6 1007.9 - 0.0 - - - - - - -
29/09:00am 29.5 SW 3 7 1008.2 - 8.4 - - - - - - -
29/08:30am 29.1 ENE 3 4 1008.5 - 8.4 - - - - - - -
29/08:00am 27.3 E 6 11 1008.6 - 8.4 - - - - - - -
29/07:30am 27.4 ESE 5 9 1008.8 - 8.4 - - - - - - -
29/07:00am 26.8 E 5 8 1008.7 - 8.4 - - - - - - -
29/06:30am 24.9 NE 3 5 1007.8 - 8.4 - - - - - - -
29/06:00am 23.7 CALM 0 2 1007.1 - 8.4 - - - - - - -
29/05:30am 23.4 CALM 0 4 1006.4 - 8.4 - - - - - - -
29/05:00am 23.5 SSE 1 3 1006.0 - 8.4 - - - - - - -
29/04:30am 23.5 SSE 3 4 1005.6 - 8.4 - - - - - - -
29/04:00am 23.8 SSE 3 5 1005.1 - 8.4 - - - - - - -
29/03:30am 23.9 SSE 3 5 1004.8 - 8.4 - - - - - - -
29/03:00am 23.9 SSE 3 6 1004.7 - 8.4 - - - - - - -
29/02:30am 23.8 S 2 4 1004.6 - 8.4 - - - - - - -
29/02:00am 23.8 CALM 0 0 1004.6 - 8.4 - - - - - - -
29/01:30am 23.8 S 2 4 1005.1 - 8.4 - - - - - - -
29/01:00am 23.7 CALM 0 0 1005.7 - 8.4 - - - - - - -
29/12:30am 23.6 S 3 5 1006.4 - 8.4 - - - - - - -
29/12:00am 23.6 SSE 4 5 1006.7 - 8.4 Recent precip. - - - - - -
 
Date/Time
WST
Temp

°C
Wind Pressure Rain
since 9am
mm
Weather Cloud Vis
km
Sea
Height
m
Swell
Dir
 
Speed
knots
Gust
knots
hPa Trend Height
m
Period
s
Dir
28/11:30pm 23.7 SSW 3 5 1007.4 - 8.2 - - - - - - -
28/11:00pm 24.0 SSW 4 7 1007.4 - 8.0 - - - - - - -
28/10:30pm 24.1 SSE 1 4 1007.3 - 8.0 - - - - - - -
28/10:00pm 23.9 SE 1 4 1007.4 - 8.0 - - - - - - -
28/09:30pm 23.8 S 1 3 1007.8 - 7.4 - - - - - - -
28/09:00pm 23.7 SSW 6 9 1007.7 - 5.2 Rain - - - - - -
28/08:30pm 24.2 SW 4 5 1006.7 - 3.6 - - - - - - -
28/08:00pm 24.3 NE 4 5 1005.8 - 3.2 - - - - - - -
28/07:30pm 24.6 N 3 5 1006.2 - 3.2 - - - - - - -
28/07:00pm 25.8 WSW 5 10 1006.2 - 3.2 - - - - - - -
28/06:30pm 25.3 ENE 1 4 1005.5 - 3.2 - - - - - - -
28/06:00pm 25.2 E 3 4 1004.6 - 3.2 - - - - - - -
28/05:30pm 25.5 NNE 2 4 1004.5 - 3.2 - - - - - - -
28/05:00pm 25.3 E 4 5 1003.9 - 3.2 - - - - - - -
28/04:30pm 25.5 SE 3 7 1003.5 - 3.2 - - - - - - -
28/04:00pm 27.2 ENE 7 10 1003.3 - 3.2 - - - - - - -
28/03:30pm 30.8 NW 6 10 1002.8 - 0.0 - - - - - - -
28/03:00pm 32.3 NW 9 13 1002.2 - 0.0 - - - - - - -
28/02:30pm 31.4 NW 9 16 1002.7 - 0.0 - - - - - - -
28/02:00pm 32.2 NNW 11 17 1002.8 - 0.0 - - - - - - -
28/01:30pm 32.8 NNW 9 13 1003.2 - 0.0 - - - - - - -
28/01:00pm 33.1 NNW 9 14 1003.6 - 0.0 - - - - - - -
28/12:30pm 33.4 WNW 4 6 1003.9 - 0.0 - - - - - - -
28/12:00pm 33.5 SSE 3 5 1004.4 - 0.0 - - - - - - -
28/11:30am 33.2 SSW 2 5 1004.9 - 0.0 - - - - - - -
28/11:00am 32.6 SSW 4 6 1005.3 - 0.0 - - - - - - -
28/10:30am 32.1 SSW 3 6 1005.9 - 0.0 - - - - - - -
28/10:00am 31.4 WNW 4 8 1006.3 - 0.0 - - - - - - -
28/09:30am 31.1 SSE 3 6 1006.7 - 0.0 - - - - - - -
28/09:00am 30.3 SSW 3 6 1006.7 - 14.0 Rain - - - - - -
28/08:30am 29.7 S 3 5 1006.9 - 13.8 - - - - - - -
28/08:00am 28.5 SW 3 5 1006.8 - 13.8 - - - - - - -
28/07:30am 27.5 SSW 4 6 1006.4 - 13.8 - - - - - - -
28/07:00am 27.0 S 4 6 1006.3 - 13.8 - - - - - - -
28/06:30am 26.2 S 3 5 1006.3 - 13.8 - - - - - - -
28/06:00am 24.6 CALM 0 0 1006.2 - 13.8 - - - - - - -
28/05:30am 24.1 SE 3 5 1006.0 - 13.8 - - - - - - -
28/05:00am 24.3 SSW 4 6 1005.9 - 13.8 - - - - - - -
28/04:30am 24.2 SSE 3 4 1005.6 - 13.8 - - - - - - -
28/04:00am 24.3 S 3 5 1005.2 - 13.8 - - - - - - -
28/03:30am 24.1 CALM 0 0 1004.9 - 13.8 - - - - - - -
28/03:00am 24.4 CALM 0 3 1004.9 - 13.8 - - - - - - -
28/02:30am 24.5 CALM 0 0 1005.0 - 13.8 - - - - - - -
28/02:00am 24.6 CALM 0 0 1005.1 - 13.8 - - - - - - -
28/01:30am 24.6 WSW 2 4 1005.2 - 13.8 - - - - - - -
28/01:00am 24.6 CALM 0 0 1005.3 - 13.8 - - - - - - -
28/12:30am 24.4 CALM 0 0 1005.4 - 13.8 - - - - - - -
28/12:00am 24.4 CALM 0 0 1005.5 - 13.8 - - - - - - -
 
Date/Time
WST
Temp

°C
Wind Pressure Rain
since 9am
mm
Weather Cloud Vis
km
Sea
Height
m
Swell
Dir
 
Speed
knots
Gust
knots
hPa Trend Height
m
Period
s
Dir
27/11:30pm 24.7 CALM 0 0 1006.2 - 13.8 - - - - - - -
27/11:00pm 24.8 WSW 1 3 1006.7 - 13.8 - - - - - - -
27/10:30pm 24.7 WSW 1 3 1007.1 - 13.8 - - - - - - -
27/10:00pm 24.7 WSW 2 4 1007.0 - 13.8 - - - - - - -
27/09:30pm 24.7 SSE 2 4 1006.9 - 13.8 - - - - - - -
27/09:00pm 24.7 SW 3 4 1007.6 - 13.8 Recent precip. - - - - - -
27/08:30pm 24.6 W 5 9 1007.7 - 13.2 - - - - - - -
27/08:00pm 24.4 E 5 6 1007.3 - 12.4 - - - - - - -
27/07:30pm 24.4 SSE 3 6 1007.9 - 10.6 - - - - - - -
27/07:00pm 24.7 SSW 4 7 1008.5 - 8.8 - - - - - - -
27/06:30pm 24.6 SW 4 8 1008.4 - 4.6 - - - - - - -
27/06:00pm 25.9 WSW 6 9 1007.7 - 0.2 Rain - - - - - -
27/05:30pm 25.8 WNW 1 4 1006.3 - 0.0 - - - - - - -

Other Formats:

Comma delimited format used in spreadsheet applications
http://www.bom.gov.au/fwo/IDW60701/IDW60701.94100.axf

JavaScript Object Notation format (JSON) in row-major order
http://www.bom.gov.au/fwo/IDW60701/IDW60701.94100.json